Archival Weather

Dallas-Fort Worth Intl

Dallas-Fort Worth, Texas (KDFW)

Report from: Thursday, September 21, 2023 10:53 AM CDT
Current time: Sunday, February 25, 2024 4:33 PM CST

Current weather – Weather history – Daily summaries
Weather forecast

Temperature29.4°C (84.9°F)
Heat index33.3°C (92.0°F)
Dew point22.8°C (73.0°F)
Winds 11 kts (5.7 m/s, 12.7 mph) South (180°)
Visibility10 mi. (16.1 km)
Clouds Few clouds 2,000 ft. (610 m)
Ceiling: Broken clouds 25,000 ft. (7,620 m)
Altimeter30.02 in.Hg (1017 mB)
Relative humidity68 %
Density altitude1,953 ft. (595 m)
Sea-level pressure101.5 kPa (1015 mB, 29.98 in.Hg)
Remarks Automated weather observing station with precipitation discriminator
Flight conditions Visual Meteorological Conditions
Raw dataKDFW 211553Z 18011KT 10SM FEW020 BKN250 29/23 A3002 RMK AO2 SLP154 T02940228
An error has occurred. This application may no longer respond until reloaded. Reload 🗙